SCCY/GXQ METAR and TAF weather

Enter ICAO airport designator
Station Type Date Time Source
SCCY METAR 2020/09/18 17:00 UTC NOAA

SCCY 181700Z VRB10G22KT 9999 BKN033 07/M03 Q1019


Station Type Date Time Source
SCCY Decoded METAR 2020/09/18 17:00 UTC NOAA

Coyhaique, Chile (SCCY) 45-35S 072-07W
Sep 18, 2020 - 01:00 PM EDT / 2020.09.18 1700 UTC
Wind: Variable at 12 MPH (10 KT) gusting to 25 MPH (22 KT):0
Visibility: greater than 7 mile(s):0
Sky conditions: mostly cloudy
Temperature: 44 F (7 C)
Dew Point: 26 F (-3 C)
Relative Humidity: 48%
Pressure (altimeter): 30.09 in. Hg (1019 hPa)
ob: SCCY 181700Z VRB10G22KT 9999 BKN033 07/M03 Q1019
cycle: 17

Station Type Date Time Source
SCCY TAF 2020/09/18 12:33 UTC NOAA

TAF SCCY 181019Z 1812/1912 28009KT 9999 BKN045 TN04/1812Z TX09/1819Z
BECMG 1813/1815 SCT050
BECMG 1816/1818 CAVOK
BECMG 1822/1824 VRB02KT

Example: see airport list